MET'MAP v2.0
soon released !

Expected late october,
this new version will be
more efficient, smarter,
and hosted on a brand new
server x3 powerfull...
...and still free !


Not compatible ?
Try the mobile version !

LOG IN : | Subscribe | Disclaimer | Who is Orbifly ? |
ICAO code :

TAF - EKAH Aarhus Tirstrup - 17 Feb 2020 16:06 UTC - Data Source NOAA   


- Airport Elevation : 82 ft
- IATA code : AAR
- No reported NOTAMs.


EKAH - Aarhus Tirstrup

Latest METAR recorded : 2015/08/11 07:50 EKAH 110750Z AUTO 15003KT 9999NDV FEW006/// BKN130/// 17/14 Q1018
TAF TAF EKAH
Valid from the 17 at 12:00 until the 18 at 12:00 UTC


171107Z 1712/1812 23015KT 9999 BKN020
TEMPO 1712/1719 23018G32KT SHRA SCT020CB
TEMPO 1808/1811 23018G28KT 4000 SHRA SCT012 BKN020CB
TEMPO 1811/1812 SHRA SCT020CB

Source NOAA


MET'MAP, your aeronautical weather chart ! - Copyright ORBIFLY December 2007

Programming & Development : Alexandra Zaïnal
Co-Developer : Marc-Olivier Méhu
Technical & hardware support : Manuel Goepfert
Concept & Financing : Baudouin d'Aumeries